HSPN

Port Sudan New International Airport

Port Sudan, Sudan
TAF HSPN 210500Z 2106/2212 27010G20KT 6000 NSC BECMG 2111/2113 07010G20KT CAVOK
Issued Valid From Valid To
Aug-21 @ 05:00 UTC
(13 hours ago)
Aug-21 @ 06:00 UTC
(12 hours ago)
Aug-22 @ 12:00 UTC
(in 18 hours)
Expired Click to View Aug-21 @ 06:00 to Aug-21 @ 11:00
TAF HSPN 210500Z 2106/2212 27010G20KT 6000 NSC
Wind Visibility Clouds
270° at 10 knots
 Gusting to 20 knots
6,003 meters
  • No significant clouds
Becoming Aug-21 @ 11:00 to Aug-22 @ 12:00
BECMG 2111/2113 07010G20KT CAVOK
Wind Visibility Clouds Conditions
70° at 10 knots
 Gusting to 20 knots
10,000+ meters
  • No significant clouds
TAF HSPN 210500Z 2106/2212 27010G20KT 6000 NSC BECMG 2111/2113 07010G20KT CAVOK
Issued Aug-21 @ 05:00 UTC
(13 hours ago)
Valid From Aug-21 @ 06:00 UTC
(12 hours ago)
Valid To Aug-22 @ 12:00 UTC
(in 18 hours)
Aug-21 @ 06:00 - Aug-21 @ 11:00
Wind Visibility
270° at 10 knots
 Gusting to 20 knots
6,003 meters
Clouds
  • No significant clouds
Becoming Aug-21 @ 11:00 - Aug-22 @ 12:00
Wind Visibility
70° at 10 knots
 Gusting to 20 knots
10,000+ meters
Clouds
  • No significant clouds
Conditions